sensor_id;sensor_type;location;lat;lon;timestamp;pressure;altitude;pressure_sealevel;temperature;humidity
79540;BME280;76655;52.122;5.406;2024-03-23T00:54:38;101232.84;;;7.46;87.74
79540;BME280;76655;52.122;5.406;2024-03-23T00:57:03;101226.59;;;7.47;87.55
79540;BME280;76655;52.122;5.406;2024-03-23T00:59:29;101224.75;;;7.47;87.60
79540;BME280;76655;52.122;5.406;2024-03-23T01:01:56;101230.06;;;7.49;87.25
79540;BME280;76655;52.122;5.406;2024-03-23T01:04:22;101223.84;;;7.48;87.44
79540;BME280;76655;52.122;5.406;2024-03-23T01:06:48;101225.63;;;7.48;87.71
79540;BME280;76655;52.122;5.406;2024-03-23T01:09:13;101226.53;;;7.48;87.64
79540;BME280;76655;52.122;5.406;2024-03-23T01:11:39;101224.72;;;7.49;87.59
79540;BME280;76655;52.122;5.406;2024-03-23T01:14:05;101224.69;;;7.50;87.75
79540;BME280;76655;52.122;5.406;2024-03-23T01:16:31;101222.06;;;7.49;87.61
79540;BME280;76655;52.122;5.406;2024-03-23T01:18:57;101209.56;;;7.49;87.51
79540;BME280;76655;52.122;5.406;2024-03-23T01:21:23;101208.66;;;7.50;87.92
79540;BME280;76655;52.122;5.406;2024-03-23T01:23:49;101205.97;;;7.50;87.50
79540;BME280;76655;52.122;5.406;2024-03-23T01:26:14;101202.41;;;7.50;87.55
79540;BME280;76655;52.122;5.406;2024-03-23T01:28:40;101198.81;;;7.51;87.39
79540;BME280;76655;52.122;5.406;2024-03-23T01:31:06;101199.69;;;7.51;87.38
79540;BME280;76655;52.122;5.406;2024-03-23T01:33:32;101197.00;;;7.51;87.47
79540;BME280;76655;52.122;5.406;2024-03-23T01:35:57;101191.66;;;7.51;87.64
79540;BME280;76655;52.122;5.406;2024-03-23T01:38:23;101180.16;;;7.49;87.42
79540;BME280;76655;52.122;5.406;2024-03-23T01:40:49;101173.91;;;7.49;87.25
79540;BME280;76655;52.122;5.406;2024-03-23T01:43:15;101176.69;;;7.46;87.21
79540;BME280;76655;52.122;5.406;2024-03-23T01:45:40;101167.81;;;7.44;87.02
79540;BME280;76655;52.122;5.406;2024-03-23T01:48:06;101161.78;;;7.39;86.91
79540;BME280;76655;52.122;5.406;2024-03-23T01:50:32;101170.81;;;7.35;87.00
79540;BME280;76655;52.122;5.406;2024-03-23T01:53:04;101158.56;;;7.28;86.77
79540;BME280;76655;52.122;5.406;2024-03-23T01:55:34;101161.34;;;7.23;86.63
79540;BME280;76655;52.122;5.406;2024-03-23T01:58:00;101161.53;;;7.19;86.35
79540;BME280;76655;52.122;5.406;2024-03-23T02:00:26;101158.91;;;7.16;86.65
79540;BME280;76655;52.122;5.406;2024-03-23T02:02:53;101156.44;;;7.10;86.63
79540;BME280;76655;52.122;5.406;2024-03-23T02:05:19;101153.06;;;7.05;86.51
79540;BME280;76655;52.122;5.406;2024-03-23T02:07:44;101155.97;;;6.97;86.53
79540;BME280;76655;52.122;5.406;2024-03-23T02:10:10;101159.66;;;6.91;86.45
79540;BME280;76655;52.122;5.406;2024-03-23T02:12:38;101164.28;;;6.86;86.51
79540;BME280;76655;52.122;5.406;2024-03-23T02:15:05;101156.41;;;6.82;86.78
79540;BME280;76655;52.122;5.406;2024-03-23T02:17:33;101164.59;;;6.76;86.89
79540;BME280;76655;52.122;5.406;2024-03-23T02:19:59;101160.31;;;6.70;86.84
79540;BME280;76655;52.122;5.406;2024-03-23T02:22:35;101162.19;;;6.67;86.89
79540;BME280;76655;52.122;5.406;2024-03-23T02:25:01;101154.34;;;6.62;86.69
79540;BME280;76655;52.122;5.406;2024-03-23T02:27:28;101153.56;;;6.57;86.64
79540;BME280;76655;52.122;5.406;2024-03-23T02:29:53;101150.22;;;6.50;86.83
79540;BME280;76655;52.122;5.406;2024-03-23T02:32:19;101141.50;;;6.44;86.76
79540;BME280;76655;52.122;5.406;2024-03-23T02:34:45;101138.06;;;6.39;86.91
79540;BME280;76655;52.122;5.406;2024-03-23T02:37:11;101138.25;;;6.33;87.37
79540;BME280;76655;52.122;5.406;2024-03-23T02:39:37;101140.22;;;6.26;87.39
79540;BME280;76655;52.122;5.406;2024-03-23T02:42:03;101135.00;;;6.22;87.71
79540;BME280;76655;52.122;5.406;2024-03-23T02:44:28;101141.34;;;6.18;87.91
79540;BME280;76655;52.122;5.406;2024-03-23T02:46:54;101144.09;;;6.15;87.97
79540;BME280;76655;52.122;5.406;2024-03-23T02:49:20;101143.25;;;6.13;88.13
79540;BME280;76655;52.122;5.406;2024-03-23T02:51:47;101144.19;;;6.12;87.74
79540;BME280;76655;52.122;5.406;2024-03-23T02:54:14;101138.84;;;6.12;87.66
79540;BME280;76655;52.122;5.406;2024-03-23T02:56:39;101147.81;;;6.09;87.67
79540;BME280;76655;52.122;5.406;2024-03-23T02:59:05;101150.53;;;6.06;87.44
79540;BME280;76655;52.122;5.406;2024-03-23T03:01:31;101144.41;;;6.03;87.52
79540;BME280;76655;52.122;5.406;2024-03-23T03:03:56;101140.94;;;5.99;87.34
79540;BME280;76655;52.122;5.406;2024-03-23T03:06:23;101142.81;;;5.95;87.55
79540;BME280;76655;52.122;5.406;2024-03-23T03:08:49;101138.50;;;5.91;87.29
79540;BME280;76655;52.122;5.406;2024-03-23T03:11:14;101146.56;;;5.88;87.10
79540;BME280;76655;52.122;5.406;2024-03-23T03:13:40;101140.44;;;5.83;87.07
79540;BME280;76655;52.122;5.406;2024-03-23T03:16:09;101140.56;;;5.79;87.30
79540;BME280;76655;52.122;5.406;2024-03-23T03:18:35;101141.53;;;5.76;87.36
79540;BME280;76655;52.122;5.406;2024-03-23T03:21:00;101136.28;;;5.73;87.09
79540;BME280;76655;52.122;5.406;2024-03-23T03:23:26;101144.28;;;5.72;87.30
79540;BME280;76655;52.122;5.406;2024-03-23T03:25:52;101137.28;;;5.68;87.08
79540;BME280;76655;52.122;5.406;2024-03-23T03:28:17;101136.47;;;5.66;87.15
79540;BME280;76655;52.122;5.406;2024-03-23T03:30:43;101136.53;;;5.63;87.06
79540;BME280;76655;52.122;5.406;2024-03-23T03:33:08;101135.75;;;5.58;87.26
79540;BME280;76655;52.122;5.406;2024-03-23T03:35:34;101133.19;;;5.53;87.14
79540;BME280;76655;52.122;5.406;2024-03-23T03:38:00;101120.91;;;5.49;87.10
79540;BME280;76655;52.122;5.406;2024-03-23T03:40:25;101131.56;;;5.47;87.25
79540;BME280;76655;52.122;5.406;2024-03-23T03:42:51;101117.44;;;5.44;87.07
79540;BME280;76655;52.122;5.406;2024-03-23T03:45:16;101129.97;;;5.40;87.16
79540;BME280;76655;52.122;5.406;2024-03-23T03:47:42;101117.63;;;5.36;87.24
79540;BME280;76655;52.122;5.406;2024-03-23T03:50:08;101121.25;;;5.34;87.21
79540;BME280;76655;52.122;5.406;2024-03-23T03:52:33;101113.34;;;5.31;87.13
79540;BME280;76655;52.122;5.406;2024-03-23T03:55:03;101111.59;;;5.28;87.18
79540;BME280;76655;52.122;5.406;2024-03-23T03:57:29;101116.13;;;5.25;87.08
79540;BME280;76655;52.122;5.406;2024-03-23T03:59:54;101118.00;;;5.21;86.98
79540;BME280;76655;52.122;5.406;2024-03-23T04:02:20;101111.91;;;5.16;87.13
79540;BME280;76655;52.122;5.406;2024-03-23T04:04:46;101109.34;;;5.12;87.38
79540;BME280;76655;52.122;5.406;2024-03-23T04:07:12;101106.75;;;5.09;87.26
79540;BME280;76655;52.122;5.406;2024-03-23T04:09:37;101109.50;;;5.06;87.36
79540;BME280;76655;52.122;5.406;2024-03-23T04:12:03;101110.47;;;5.01;87.08
79540;BME280;76655;52.122;5.406;2024-03-23T04:14:28;101114.09;;;4.99;87.31
79540;BME280;76655;52.122;5.406;2024-03-23T04:16:54;101099.97;;;4.95;87.09
79540;BME280;76655;52.122;5.406;2024-03-23T04:19:21;101097.34;;;4.92;87.06
79540;BME280;76655;52.122;5.406;2024-03-23T04:21:46;101093.88;;;4.89;86.99
79540;BME280;76655;52.122;5.406;2024-03-23T04:24:12;101101.03;;;4.88;87.13
79540;BME280;76655;52.122;5.406;2024-03-23T04:26:41;101098.41;;;4.85;87.04
79540;BME280;76655;52.122;5.406;2024-03-23T04:29:07;101095.00;;;4.80;86.97
79540;BME280;76655;52.122;5.406;2024-03-23T04:31:33;101101.25;;;4.78;87.06
79540;BME280;76655;52.122;5.406;2024-03-23T04:34:03;101095.97;;;4.76;87.16
79540;BME280;76655;52.122;5.406;2024-03-23T04:36:29;101091.59;;;4.72;86.99
79540;BME280;76655;52.122;5.406;2024-03-23T04:38:55;101095.16;;;4.71;87.21
79540;BME280;76655;52.122;5.406;2024-03-23T04:41:20;101096.19;;;4.67;87.12
79540;BME280;76655;52.122;5.406;2024-03-23T04:43:46;101100.63;;;4.65;87.34
79540;BME280;76655;52.122;5.406;2024-03-23T04:46:12;101096.28;;;4.61;87.13
79540;BME280;76655;52.122;5.406;2024-03-23T04:48:37;101095.47;;;4.59;87.32
79540;BME280;76655;52.122;5.406;2024-03-23T04:51:04;101101.72;;;4.57;87.13
79540;BME280;76655;52.122;5.406;2024-03-23T04:53:29;101099.06;;;4.57;87.29
79540;BME280;76655;52.122;5.406;2024-03-23T04:55:56;101095.47;;;4.58;87.55
79540;BME280;76655;52.122;5.406;2024-03-23T04:58:22;101086.59;;;4.59;87.59
79540;BME280;76655;52.122;5.406;2024-03-23T05:00:56;101092.78;;;4.59;87.35
79540;BME280;76655;52.122;5.406;2024-03-23T05:03:22;101091.97;;;4.56;87.15
79540;BME280;76655;52.122;5.406;2024-03-23T05:05:48;101092.06;;;4.53;87.27
79540;BME280;76655;52.122;5.406;2024-03-23T05:08:15;101091.25;;;4.49;87.12
79540;BME280;76655;52.122;5.406;2024-03-23T05:10:42;101091.25;;;4.47;86.96
79540;BME280;76655;52.122;5.406;2024-03-23T05:13:07;101093.09;;;4.44;86.64
79540;BME280;76655;52.122;5.406;2024-03-23T05:15:33;101086.97;;;4.40;86.85
79540;BME280;76655;52.122;5.406;2024-03-23T05:17:59;101086.16;;;4.37;86.77
79540;BME280;76655;52.122;5.406;2024-03-23T05:20:25;101092.44;;;4.33;86.82
79540;BME280;76655;52.122;5.406;2024-03-23T05:22:50;101093.41;;;4.30;86.66
79540;BME280;76655;52.122;5.406;2024-03-23T05:25:16;101094.34;;;4.28;86.89
79540;BME280;76655;52.122;5.406;2024-03-23T05:27:41;101096.13;;;4.27;86.97
79540;BME280;76655;52.122;5.406;2024-03-23T05:30:07;101103.31;;;4.22;86.79
79540;BME280;76655;52.122;5.406;2024-03-23T05:32:34;101100.72;;;4.19;87.01
79540;BME280;76655;52.122;5.406;2024-03-23T05:35:00;101105.19;;;4.17;87.29
79540;BME280;76655;52.122;5.406;2024-03-23T05:37:25;101109.66;;;4.15;87.01
79540;BME280;76655;52.122;5.406;2024-03-23T05:39:51;101104.38;;;4.14;87.02
79540;BME280;76655;52.122;5.406;2024-03-23T05:42:17;101107.94;;;4.13;87.01
79540;BME280;76655;52.122;5.406;2024-03-23T05:44:46;101112.31;;;4.17;87.20
79540;BME280;76655;52.122;5.406;2024-03-23T05:47:12;101100.75;;;4.18;87.32
79540;BME280;76655;52.122;5.406;2024-03-23T05:49:40;101097.09;;;4.22;87.66
79540;BME280;76655;52.122;5.406;2024-03-23T05:52:08;101099.69;;;4.26;87.59
79540;BME280;76655;52.122;5.406;2024-03-23T05:54:34;101089.84;;;4.30;87.60
79540;BME280;76655;52.122;5.406;2024-03-23T05:57:00;101088.91;;;4.34;87.51
79540;BME280;76655;52.122;5.406;2024-03-23T05:59:25;101081.66;;;4.40;87.61
79540;BME280;76655;52.122;5.406;2024-03-23T06:01:52;101082.47;;;4.44;87.60
79540;BME280;76655;52.122;5.406;2024-03-23T06:04:18;101084.09;;;4.51;87.47
79540;BME280;76655;52.122;5.406;2024-03-23T06:06:43;101084.88;;;4.56;87.64
79540;BME280;76655;52.122;5.406;2024-03-23T06:09:09;101085.63;;;4.61;87.70
79540;BME280;76655;52.122;5.406;2024-03-23T06:11:35;101087.41;;;4.62;87.60
79540;BME280;76655;52.122;5.406;2024-03-23T06:14:00;101095.38;;;4.64;87.05
79540;BME280;76655;52.122;5.406;2024-03-23T06:16:26;101093.53;;;4.66;87.42
79540;BME280;76655;52.122;5.406;2024-03-23T06:18:53;101098.84;;;4.67;87.12
79540;BME280;76655;52.122;5.406;2024-03-23T06:21:20;101097.06;;;4.66;86.95
79540;BME280;76655;52.122;5.406;2024-03-23T06:23:46;101090.88;;;4.66;87.06
79540;BME280;76655;52.122;5.406;2024-03-23T06:26:17;101083.78;;;4.66;86.77
79540;BME280;76655;52.122;5.406;2024-03-23T06:28:43;101084.66;;;4.67;87.06
79540;BME280;76655;52.122;5.406;2024-03-23T06:31:09;101080.16;;;4.69;86.76
79540;BME280;76655;52.122;5.406;2024-03-23T06:33:35;101080.94;;;4.74;86.84
79540;BME280;76655;52.122;5.406;2024-03-23T06:36:01;101076.38;;;4.79;86.64
79540;BME280;76655;52.122;5.406;2024-03-23T06:38:28;101074.44;;;4.85;86.78
79540;BME280;76655;52.122;5.406;2024-03-23T06:40:54;101074.31;;;4.91;86.82
79540;BME280;76655;52.122;5.406;2024-03-23T06:43:19;101077.72;;;4.98;86.79
79540;BME280;76655;52.122;5.406;2024-03-23T06:45:52;101078.41;;;5.06;86.64
79540;BME280;76655;52.122;5.406;2024-03-23T06:48:19;101070.22;;;5.14;86.62
79540;BME280;76655;52.122;5.406;2024-03-23T06:50:45;101064.69;;;5.21;86.85
79540;BME280;76655;52.122;5.406;2024-03-23T06:53:12;101073.38;;;5.31;86.72
79540;BME280;76655;52.122;5.406;2024-03-23T06:55:38;101073.22;;;5.37;86.55
79540;BME280;76655;52.122;5.406;2024-03-23T06:58:04;101077.38;;;5.47;86.52
79540;BME280;76655;52.122;5.406;2024-03-23T07:00:30;101082.53;;;5.55;86.38
79540;BME280;76655;52.122;5.406;2024-03-23T07:02:55;101071.69;;;5.61;86.37
79540;BME280;76655;52.122;5.406;2024-03-23T07:05:21;101073.34;;;5.66;85.95
79540;BME280;76655;52.122;5.406;2024-03-23T07:07:47;101079.41;;;5.71;85.81
79540;BME280;76655;52.122;5.406;2024-03-23T07:10:13;101079.22;;;5.79;85.89
79540;BME280;76655;52.122;5.406;2024-03-23T07:12:38;101071.03;;;5.85;85.67
79540;BME280;76655;52.122;5.406;2024-03-23T07:15:05;101076.13;;;5.95;85.60
79540;BME280;76655;52.122;5.406;2024-03-23T07:17:30;101073.22;;;6.05;85.43
79540;BME280;76655;52.122;5.406;2024-03-23T07:19:58;101068.59;;;6.11;84.99
79540;BME280;76655;52.122;5.406;2024-03-23T07:22:23;101068.38;;;6.19;84.91
79540;BME280;76655;52.122;5.406;2024-03-23T07:24:49;101072.63;;;6.26;84.81
79540;BME280;76655;52.122;5.406;2024-03-23T07:27:15;101068.88;;;6.31;83.95
79540;BME280;76655;52.122;5.406;2024-03-23T07:29:40;101074.06;;;6.37;84.03
79540;BME280;76655;52.122;5.406;2024-03-23T07:32:06;101078.31;;;6.44;83.88
79540;BME280;76655;52.122;5.406;2024-03-23T07:34:32;101070.03;;;6.52;83.79
79540;BME280;76655;52.122;5.406;2024-03-23T07:36:57;101075.16;;;6.60;83.58
79540;BME280;76655;52.122;5.406;2024-03-23T07:39:23;101074.94;;;6.67;83.99
79540;BME280;76655;52.122;5.406;2024-03-23T07:41:48;101085.25;;;6.79;83.67
79540;BME280;76655;52.122;5.406;2024-03-23T07:44:14;101082.25;;;6.90;82.98
79540;BME280;76655;52.122;5.406;2024-03-23T07:46:40;101080.16;;;6.99;83.15
79540;BME280;76655;52.122;5.406;2024-03-23T07:49:05;101070.13;;;7.08;82.72
79540;BME280;76655;52.122;5.406;2024-03-23T07:51:31;101077.97;;;7.12;82.26
79540;BME280;76655;52.122;5.406;2024-03-23T07:53:57;101084.19;;;7.13;80.43
79540;BME280;76655;52.122;5.406;2024-03-23T07:56:23;101084.00;;;7.19;78.94
79540;BME280;76655;52.122;5.406;2024-03-23T07:58:49;101084.78;;;7.22;79.77
79540;BME280;76655;52.122;5.406;2024-03-23T08:01:16;101079.16;;;7.30;79.88
79540;BME280;76655;52.122;5.406;2024-03-23T08:03:43;101081.66;;;7.36;78.96
79540;BME280;76655;52.122;5.406;2024-03-23T08:08:35;101075.97;;;7.46;79.17
79540;BME280;76655;52.122;5.406;2024-03-23T08:11:01;101070.34;;;7.54;78.07
79540;BME280;76655;52.122;5.406;2024-03-23T08:13:27;101071.28;;;7.53;77.79
79540;BME280;76655;52.122;5.406;2024-03-23T08:15:56;101056.69;;;7.62;77.46
79540;BME280;76655;52.122;5.406;2024-03-23T08:18:22;101064.56;;;7.66;76.92
79540;BME280;76655;52.122;5.406;2024-03-23T08:24:00;101057.16;;;7.74;76.31
79540;BME280;76655;52.122;5.406;2024-03-23T08:26:25;101055.13;;;7.81;76.19
79540;BME280;76655;52.122;5.406;2024-03-23T08:28:51;101070.81;;;7.91;76.25
79540;BME280;76655;52.122;5.406;2024-03-23T08:31:16;101086.56;;;8.00;74.96
79540;BME280;76655;52.122;5.406;2024-03-23T08:33:42;101059.88;;;7.97;74.35
79540;BME280;76655;52.122;5.406;2024-03-23T08:36:10;101073.00;;;8.05;74.82
79540;BME280;76655;52.122;5.406;2024-03-23T08:38:38;101072.94;;;8.07;74.02
79540;BME280;76655;52.122;5.406;2024-03-23T08:41:06;101060.56;;;8.04;72.98
79540;BME280;76655;52.122;5.406;2024-03-23T08:43:34;101073.88;;;8.06;72.20
79540;BME280;76655;52.122;5.406;2024-03-23T08:46:10;101069.25;;;8.11;71.39
79540;BME280;76655;52.122;5.406;2024-03-23T08:48:37;101066.44;;;8.14;72.99
79540;BME280;76655;52.122;5.406;2024-03-23T08:51:07;101066.84;;;8.26;71.94
79540;BME280;76655;52.122;5.406;2024-03-23T08:53:34;101064.06;;;8.31;72.03
79540;BME280;76655;52.122;5.406;2024-03-23T08:56:00;101062.03;;;8.37;71.31
79540;BME280;76655;52.122;5.406;2024-03-23T08:58:27;101059.84;;;8.47;71.99
79540;BME280;76655;52.122;5.406;2024-03-23T09:00:54;101055.81;;;8.60;72.00
79540;BME280;76655;52.122;5.406;2024-03-23T09:03:23;101053.75;;;8.67;70.41
79540;BME280;76655;52.122;5.406;2024-03-23T09:05:49;101053.59;;;8.71;71.26
79540;BME280;76655;52.122;5.406;2024-03-23T09:08:15;101048.47;;;8.87;70.69
79540;BME280;76655;52.122;5.406;2024-03-23T09:10:41;101056.97;;;8.98;70.10
79540;BME280;76655;52.122;5.406;2024-03-23T09:13:07;101034.47;;;9.02;68.44
79540;BME280;76655;52.122;5.406;2024-03-23T09:15:44;101056.53;;;9.09;68.41
79540;BME280;76655;52.122;5.406;2024-03-23T09:18:10;101048.63;;;9.06;69.04
79540;BME280;76655;52.122;5.406;2024-03-23T09:20:36;101058.78;;;8.97;70.27
79540;BME280;76655;52.122;5.406;2024-03-23T09:23:01;101063.22;;;8.75;70.12
79540;BME280;76655;52.122;5.406;2024-03-23T09:25:27;101064.28;;;8.48;70.44
79540;BME280;76655;52.122;5.406;2024-03-23T09:27:53;101059.69;;;8.27;71.87
79540;BME280;76655;52.122;5.406;2024-03-23T09:30:18;101054.69;;;8.18;72.62
79540;BME280;76655;52.122;5.406;2024-03-23T09:32:45;101056.06;;;8.05;72.83
79540;BME280;76655;52.122;5.406;2024-03-23T09:35:11;101046.88;;;7.87;73.32
79540;BME280;76655;52.122;5.406;2024-03-23T09:37:40;101055.22;;;7.79;73.46
79540;BME280;76655;52.122;5.406;2024-03-23T09:40:09;101054.63;;;7.70;74.01
79540;BME280;76655;52.122;5.406;2024-03-23T09:42:35;101054.63;;;7.70;74.11
79540;BME280;76655;52.122;5.406;2024-03-23T09:45:01;101069.16;;;7.63;74.39
79540;BME280;76655;52.122;5.406;2024-03-23T09:47:27;101069.72;;;7.46;74.43
79540;BME280;76655;52.122;5.406;2024-03-23T09:49:54;101067.03;;;7.20;74.30
79540;BME280;76655;52.122;5.406;2024-03-23T09:52:20;101068.47;;;7.04;74.67
79540;BME280;76655;52.122;5.406;2024-03-23T09:54:45;101058.25;;;6.88;74.66
79540;BME280;76655;52.122;5.406;2024-03-23T09:57:11;101058.66;;;6.76;74.88
79540;BME280;76655;52.122;5.406;2024-03-23T09:59:37;101052.34;;;6.77;75.76
79540;BME280;76655;52.122;5.406;2024-03-23T10:02:02;101055.53;;;6.90;76.46
79540;BME280;76655;52.122;5.406;2024-03-23T10:04:39;101046.88;;;7.10;77.51
79540;BME280;76655;52.122;5.406;2024-03-23T10:07:15;101047.19;;;7.27;77.10
79540;BME280;76655;52.122;5.406;2024-03-23T10:09:42;101032.22;;;7.47;77.16
79540;BME280;76655;52.122;5.406;2024-03-23T10:12:12;101025.97;;;7.73;77.69
79540;BME280;76655;52.122;5.406;2024-03-23T10:14:39;101031.44;;;7.95;75.48
79540;BME280;76655;52.122;5.406;2024-03-23T10:17:22;101026.94;;;8.20;75.04
79540;BME280;76655;52.122;5.406;2024-03-23T10:19:51;101035.31;;;8.36;73.08
79540;BME280;76655;52.122;5.406;2024-03-23T10:22:21;101032.75;;;8.56;71.29
79540;BME280;76655;52.122;5.406;2024-03-23T10:24:48;101040.47;;;8.64;68.30
79540;BME280;76655;52.122;5.406;2024-03-23T10:27:18;101042.41;;;8.37;69.14
79540;BME280;76655;52.122;5.406;2024-03-23T10:29:48;101041.81;;;8.29;69.45
79540;BME280;76655;52.122;5.406;2024-03-23T10:32:15;101035.59;;;8.27;69.85
79540;BME280;76655;52.122;5.406;2024-03-23T10:34:41;101036.91;;;8.40;69.46
79540;BME280;76655;52.122;5.406;2024-03-23T10:37:08;101023.88;;;8.54;68.82
79540;BME280;76655;52.122;5.406;2024-03-23T10:39:38;101025.50;;;8.58;65.96
79540;BME280;76655;52.122;5.406;2024-03-23T10:42:09;101024.31;;;8.65;65.86
79540;BME280;76655;52.122;5.406;2024-03-23T10:44:37;101039.84;;;8.79;66.79
79540;BME280;76655;52.122;5.406;2024-03-23T10:47:05;101032.28;;;8.90;67.68
79540;BME280;76655;52.122;5.406;2024-03-23T10:52:01;101039.25;;;8.94;67.21
79540;BME280;76655;52.122;5.406;2024-03-23T10:54:27;101051.34;;;8.82;66.66
79540;BME280;76655;52.122;5.406;2024-03-23T10:57:11;101055.56;;;8.66;70.22
79540;BME280;76655;52.122;5.406;2024-03-23T10:59:39;101064.09;;;8.29;69.87
79540;BME280;76655;52.122;5.406;2024-03-23T11:02:05;101044.16;;;8.13;71.15
79540;BME280;76655;52.122;5.406;2024-03-23T11:04:35;101047.97;;;8.06;69.57
79540;BME280;76655;52.122;5.406;2024-03-23T11:07:02;101040.47;;;7.92;70.46
79540;BME280;76655;52.122;5.406;2024-03-23T11:12:26;101039.91;;;8.32;70.49
79540;BME280;76655;52.122;5.406;2024-03-23T11:14:59;101031.34;;;8.46;70.57
79540;BME280;76655;52.122;5.406;2024-03-23T11:17:26;101025.50;;;8.81;70.67
79540;BME280;76655;52.122;5.406;2024-03-23T11:20:00;101016.72;;;8.99;68.39
79540;BME280;76655;52.122;5.406;2024-03-23T11:25:22;101020.97;;;9.04;68.66
79540;BME280;76655;52.122;5.406;2024-03-23T11:27:50;101033.63;;;9.00;67.81
79540;BME280;76655;52.122;5.406;2024-03-23T11:32:44;101026.16;;;9.08;68.22
79540;BME280;76655;52.122;5.406;2024-03-23T11:35:24;101022.00;;;9.23;67.65
79540;BME280;76655;52.122;5.406;2024-03-23T11:40:34;101010.16;;;9.07;65.55
79540;BME280;76655;52.122;5.406;2024-03-23T11:43:02;101019.44;;;9.20;64.10
79540;BME280;76655;52.122;5.406;2024-03-23T11:45:29;101006.31;;;9.34;65.77
79540;BME280;76655;52.122;5.406;2024-03-23T11:48:07;101004.56;;;9.33;61.69
79540;BME280;76655;52.122;5.406;2024-03-23T11:50:35;100999.81;;;9.39;64.15
79540;BME280;76655;52.122;5.406;2024-03-23T11:53:17;100999.56;;;9.66;64.41
79540;BME280;76655;52.122;5.406;2024-03-23T11:55:52;101003.00;;;9.69;62.58
79540;BME280;76655;52.122;5.406;2024-03-23T11:58:20;101014.38;;;9.54;61.96
79540;BME280;76655;52.122;5.406;2024-03-23T12:00:57;100994.44;;;9.39;62.62
79540;BME280;76655;52.122;5.406;2024-03-23T12:03:24;101001.22;;;9.28;61.67
79540;BME280;76655;52.122;5.406;2024-03-23T12:05:58;101004.84;;;9.27;62.98
79540;BME280;76655;52.122;5.406;2024-03-23T12:11:13;100996.19;;;9.40;61.87
79540;BME280;76655;52.122;5.406;2024-03-23T12:13:41;100999.06;;;9.36;61.08
79540;BME280;76655;52.122;5.406;2024-03-23T12:16:21;101002.19;;;9.25;61.67
79540;BME280;76655;52.122;5.406;2024-03-23T12:18:50;101000.50;;;9.03;62.58
79540;BME280;76655;52.122;5.406;2024-03-23T12:21:18;100993.69;;;8.94;63.57
79540;BME280;76655;52.122;5.406;2024-03-23T12:23:44;100990.13;;;9.15;62.38
79540;BME280;76655;52.122;5.406;2024-03-23T12:26:12;100974.69;;;9.42;62.29
79540;BME280;76655;52.122;5.406;2024-03-23T12:28:38;100972.28;;;9.56;61.16
79540;BME280;76655;52.122;5.406;2024-03-23T12:31:04;100969.88;;;9.70;61.14
79540;BME280;76655;52.122;5.406;2024-03-23T12:33:31;100967.41;;;9.64;61.31
79540;BME280;76655;52.122;5.406;2024-03-23T12:35:57;100957.97;;;9.56;60.58
79540;BME280;76655;52.122;5.406;2024-03-23T12:38:22;100960.72;;;9.54;58.69
79540;BME280;76655;52.122;5.406;2024-03-23T12:40:49;100965.03;;;9.38;60.77
79540;BME280;76655;52.122;5.406;2024-03-23T12:43:15;100973.31;;;9.32;60.96
79540;BME280;76655;52.122;5.406;2024-03-23T12:45:40;100966.38;;;9.28;60.90
79540;BME280;76655;52.122;5.406;2024-03-23T12:48:07;100972.69;;;9.25;59.72
79540;BME280;76655;52.122;5.406;2024-03-23T12:50:32;100967.28;;;9.27;60.58
79540;BME280;76655;52.122;5.406;2024-03-23T12:52:58;100977.19;;;9.25;59.22
79540;BME280;76655;52.122;5.406;2024-03-23T12:55:24;100958.81;;;9.16;59.58
79540;BME280;76655;52.122;5.406;2024-03-23T12:57:49;100966.97;;;9.34;61.20
79540;BME280;76655;52.122;5.406;2024-03-23T13:00:15;100955.75;;;9.65;60.84
79540;BME280;76655;52.122;5.406;2024-03-23T13:02:42;100964.25;;;9.75;60.91
79540;BME280;76655;52.122;5.406;2024-03-23T13:05:08;100974.13;;;9.94;59.91
79540;BME280;76655;52.122;5.406;2024-03-23T13:07:36;100966.72;;;9.99;59.11
79540;BME280;76655;52.122;5.406;2024-03-23T13:10:05;100963.28;;;9.77;57.88
79540;BME280;76655;52.122;5.406;2024-03-23T13:12:31;100968.59;;;9.59;58.17
79540;BME280;76655;52.122;5.406;2024-03-23T13:14:59;100965.03;;;9.38;59.09
79540;BME280;76655;52.122;5.406;2024-03-23T13:17:25;100956.66;;;9.45;58.82
79540;BME280;76655;52.122;5.406;2024-03-23T13:19:53;100963.25;;;9.57;57.72
79540;BME280;76655;52.122;5.406;2024-03-23T13:22:18;100957.75;;;9.60;58.33
79540;BME280;76655;52.122;5.406;2024-03-23T13:24:44;100974.41;;;9.48;58.19
79540;BME280;76655;52.122;5.406;2024-03-23T13:27:10;100999.00;;;9.17;59.58
79540;BME280;76655;52.122;5.406;2024-03-23T13:29:36;101025.97;;;8.69;60.20
79540;BME280;76655;52.122;5.406;2024-03-23T13:32:03;101020.34;;;8.30;62.26
79540;BME280;76655;52.122;5.406;2024-03-23T13:34:29;100994.81;;;8.20;62.86
79540;BME280;76655;52.122;5.406;2024-03-23T13:36:55;100982.13;;;8.25;63.85
79540;BME280;76655;52.122;5.406;2024-03-23T13:39:23;100983.59;;;8.34;63.41
79540;BME280;76655;52.122;5.406;2024-03-23T13:41:49;100984.97;;;8.44;64.56
79540;BME280;76655;52.122;5.406;2024-03-23T13:44:14;100969.81;;;8.66;63.54
79540;BME280;76655;52.122;5.406;2024-03-23T13:46:42;100970.38;;;8.74;63.57
79540;BME280;76655;52.122;5.406;2024-03-23T13:49:23;100966.84;;;8.95;62.25
79540;BME280;76655;52.122;5.406;2024-03-23T13:51:49;100971.44;;;9.14;62.93
79540;BME280;76655;52.122;5.406;2024-03-23T13:54:15;100967.06;;;9.11;62.85
79540;BME280;76655;52.122;5.406;2024-03-23T13:56:41;100969.72;;;9.11;62.94
79540;BME280;76655;52.122;5.406;2024-03-23T13:59:06;100963.72;;;9.06;62.61
79540;BME280;76655;52.122;5.406;2024-03-23T14:01:32;100967.63;;;8.97;60.92
79540;BME280;76655;52.122;5.406;2024-03-23T14:03:58;100959.47;;;9.00;63.21
79540;BME280;76655;52.122;5.406;2024-03-23T14:06:23;100961.50;;;9.16;61.87
79540;BME280;76655;52.122;5.406;2024-03-23T14:08:49;100953.28;;;9.20;62.78
79540;BME280;76655;52.122;5.406;2024-03-23T14:11:15;100948.56;;;9.25;62.34
79540;BME280;76655;52.122;5.406;2024-03-23T14:13:40;100946.84;;;9.24;61.10